createdAt,value
2018-01-02T00:00:27.047Z,7.10
2018-01-02T00:03:32.138Z,7.10
2018-01-02T00:06:37.898Z,7.10
2018-01-02T00:09:43.483Z,7.10
2018-01-02T00:12:49.567Z,7.00
2018-01-02T00:15:55.550Z,7.00
2018-01-02T00:19:02.144Z,6.90
2018-01-02T00:22:08.269Z,6.90
2018-01-02T00:25:14.646Z,6.80
2018-01-02T00:28:20.775Z,6.70
2018-01-02T00:31:25.674Z,6.70
2018-01-02T00:34:31.227Z,6.60
2018-01-02T00:37:36.686Z,6.50
2018-01-02T00:40:41.862Z,6.40
2018-01-02T00:43:47.135Z,6.40
2018-01-02T00:46:52.871Z,6.30
2018-01-02T00:49:57.715Z,6.40
2018-01-02T00:53:03.118Z,6.40
2018-01-02T00:56:08.762Z,6.50
2018-01-02T00:59:14.534Z,6.60
2018-01-02T01:02:20.638Z,6.50
2018-01-02T01:05:27.030Z,6.50
2018-01-02T01:08:32.747Z,6.50
2018-01-02T01:11:37.706Z,6.30
2018-01-02T01:14:42.984Z,6.30
2018-01-02T01:17:48.830Z,6.40
2018-01-02T01:20:53.888Z,6.30
2018-01-02T01:23:58.878Z,6.40
2018-01-02T01:27:04.709Z,6.40
2018-01-02T01:30:09.746Z,6.40
2018-01-02T01:33:14.890Z,6.40
2018-01-02T01:36:20.282Z,6.50
2018-01-02T01:39:25.634Z,6.50
2018-01-02T01:42:30.742Z,6.50
2018-01-02T01:45:36.503Z,6.50
2018-01-02T01:48:42.624Z,6.50
2018-01-02T01:51:47.962Z,6.50
2018-01-02T01:54:53.582Z,6.60
2018-01-02T01:57:58.934Z,6.60
2018-01-02T02:01:04.135Z,6.60
2018-01-02T02:04:09.794Z,6.60
2018-01-02T02:07:16.049Z,6.50
2018-01-02T02:10:21.697Z,6.50
2018-01-02T02:13:27.110Z,6.50
2018-01-02T02:16:32.027Z,6.50
2018-01-02T02:19:38.166Z,6.60
2018-01-02T02:22:44.261Z,6.60
2018-01-02T02:25:50.086Z,6.50
2018-01-02T02:28:56.470Z,6.50
2018-01-02T02:32:02.726Z,6.50
2018-01-02T02:35:07.861Z,6.50
2018-01-02T02:38:13.535Z,6.60
2018-01-02T02:41:25.226Z,6.50
2018-01-02T02:44:30.262Z,6.50
2018-01-02T02:47:36.274Z,6.60
2018-01-02T02:50:41.838Z,6.60
2018-01-02T02:53:46.774Z,6.60
2018-01-02T02:56:51.781Z,6.60
2018-01-02T02:59:57.974Z,6.60
2018-01-02T03:03:02.835Z,6.60
2018-01-02T03:06:08.644Z,6.50
2018-01-02T03:09:14.113Z,6.50
2018-01-02T03:12:18.947Z,6.50
2018-01-02T03:15:25.249Z,6.40
2018-01-02T03:18:30.698Z,6.30
2018-01-02T03:21:36.129Z,6.10
2018-01-02T03:24:41.666Z,6.10
2018-01-02T03:27:47.042Z,6.10
2018-01-02T03:30:53.761Z,6.10
2018-01-02T03:33:58.582Z,6.10
2018-01-02T03:37:03.876Z,6.00
2018-01-02T03:40:09.758Z,5.80
2018-01-02T03:43:14.961Z,5.80
2018-01-02T03:46:19.890Z,5.80
2018-01-02T03:49:25.426Z,5.80
2018-01-02T03:52:30.415Z,5.80
2018-01-02T03:55:35.194Z,5.70
2018-01-02T03:58:40.666Z,5.70
2018-01-02T04:01:46.178Z,5.70
2018-01-02T04:04:52.082Z,5.80
2018-01-02T04:07:57.034Z,5.80
2018-01-02T04:11:02.506Z,5.80
2018-01-02T04:14:07.818Z,5.80
2018-01-02T04:17:13.207Z,5.80
2018-01-02T04:20:18.515Z,5.90
2018-01-02T04:23:24.082Z,5.80
2018-01-02T04:26:28.922Z,5.80
2018-01-02T04:29:35.282Z,5.70
2018-01-02T04:32:40.491Z,5.60
2018-01-02T04:35:46.090Z,5.70
2018-01-02T04:38:51.329Z,5.70
2018-01-02T04:41:57.194Z,5.70
2018-01-02T04:45:02.775Z,5.60
2018-01-02T04:48:08.374Z,5.60
2018-01-02T04:51:14.432Z,5.70
2018-01-02T04:54:19.147Z,5.70
2018-01-02T04:57:23.990Z,5.70
2018-01-02T05:00:29.767Z,5.70
2018-01-02T05:03:34.514Z,5.70
2018-01-02T05:06:40.078Z,5.70
2018-01-02T05:09:45.623Z,5.80
2018-01-02T05:12:51.787Z,5.80
2018-01-02T05:15:57.390Z,5.80
2018-01-02T05:19:02.754Z,5.80
2018-01-02T05:22:07.704Z,5.90
2018-01-02T05:25:13.306Z,6.00
2018-01-02T05:28:18.450Z,6.00
2018-01-02T05:31:23.659Z,6.00
2018-01-02T05:34:29.214Z,6.00
2018-01-02T05:37:34.058Z,6.00
2018-01-02T05:40:39.030Z,6.00
2018-01-02T05:43:45.184Z,6.00
2018-01-02T05:46:50.302Z,6.00
2018-01-02T05:49:56.398Z,6.10
2018-01-02T05:53:02.514Z,6.10
2018-01-02T05:56:07.626Z,6.10
2018-01-02T05:59:12.717Z,6.20
2018-01-02T06:02:19.007Z,6.20
2018-01-02T06:05:23.994Z,6.10
2018-01-02T06:08:29.702Z,6.10
2018-01-02T06:11:36.280Z,6.10
2018-01-02T06:14:41.786Z,6.00
2018-01-02T06:17:46.845Z,6.00
2018-01-02T06:20:52.450Z,6.00
2018-01-02T06:23:57.383Z,6.00
2018-01-02T06:27:06.502Z,6.10
2018-01-02T06:30:16.640Z,6.10
2018-01-02T06:33:22.178Z,6.00
2018-01-02T06:36:27.338Z,6.00
2018-01-02T06:39:34.142Z,6.00
2018-01-02T06:42:40.510Z,6.00
2018-01-02T06:45:45.501Z,6.00
2018-01-02T06:48:50.422Z,6.00
2018-01-02T06:51:55.424Z,6.00
2018-01-02T06:55:00.906Z,6.00
2018-01-02T06:58:07.239Z,6.00
2018-01-02T07:01:13.434Z,6.00
2018-01-02T07:04:19.121Z,6.00
2018-01-02T07:07:24.526Z,5.90
2018-01-02T07:10:30.756Z,6.00
2018-01-02T07:13:43.122Z,5.90
2018-01-02T07:16:48.643Z,5.90
2018-01-02T07:19:53.969Z,5.80
2018-01-02T07:22:59.534Z,5.80
2018-01-02T07:26:04.914Z,5.70
2018-01-02T07:29:10.725Z,5.70
2018-01-02T07:32:17.119Z,5.70
2018-01-02T07:35:22.390Z,5.80
2018-01-02T07:38:27.565Z,5.90
2018-01-02T07:41:36.744Z,5.90
2018-01-02T07:44:41.973Z,5.80
2018-01-02T07:47:47.287Z,5.90
2018-01-02T07:50:52.918Z,5.80
2018-01-02T07:53:58.590Z,5.80
2018-01-02T07:57:03.926Z,5.70
2018-01-02T08:00:08.684Z,5.70
2018-01-02T08:03:13.497Z,5.70
2018-01-02T08:06:18.354Z,5.70
2018-01-02T08:09:23.487Z,5.70
2018-01-02T08:12:29.676Z,5.80
2018-01-02T08:15:36.272Z,5.80
2018-01-02T08:18:41.431Z,5.90
2018-01-02T08:21:46.183Z,6.00
2018-01-02T08:24:52.004Z,5.90
2018-01-02T08:27:57.444Z,5.90
2018-01-02T08:31:03.795Z,6.00
2018-01-02T08:34:08.827Z,6.10
2018-01-02T08:37:15.355Z,6.10
2018-01-02T08:40:22.034Z,6.20
2018-01-02T08:43:28.151Z,6.20
2018-01-02T08:46:34.163Z,6.20
2018-01-02T08:49:39.673Z,6.30
2018-01-02T08:52:45.534Z,6.30
2018-01-02T08:55:50.228Z,6.40
2018-01-02T08:58:55.482Z,6.50
2018-01-02T09:02:00.614Z,6.50
2018-01-02T09:05:06.221Z,6.50
2018-01-02T09:08:12.336Z,6.50
2018-01-02T09:11:17.497Z,6.50
2018-01-02T09:14:25.004Z,6.50
2018-01-02T09:17:31.923Z,6.50
2018-01-02T09:20:37.007Z,6.50
2018-01-02T09:23:42.384Z,6.40
2018-01-02T09:26:48.048Z,6.50
2018-01-02T09:29:53.898Z,6.40
2018-01-02T09:33:00.054Z,6.50
2018-01-02T09:36:05.631Z,6.50
2018-01-02T09:39:11.354Z,6.60
2018-01-02T09:42:16.275Z,6.50
2018-01-02T09:45:21.386Z,6.70
2018-01-02T09:48:26.455Z,6.70
2018-01-02T09:51:31.741Z,6.70
2018-01-02T09:54:37.098Z,6.80
2018-01-02T09:57:42.891Z,6.90
2018-01-02T10:00:47.846Z,6.80
2018-01-02T10:03:54.638Z,7.00
2018-01-02T10:07:00.695Z,7.00
2018-01-02T10:10:05.576Z,7.00
2018-01-02T10:13:11.438Z,6.90
2018-01-02T10:16:17.452Z,6.80
2018-01-02T10:19:23.463Z,6.70
2018-01-02T10:22:28.826Z,6.70
2018-01-02T10:25:34.585Z,6.80
2018-01-02T10:28:39.494Z,6.80
2018-01-02T10:31:45.885Z,7.00
2018-01-02T10:34:52.269Z,7.10
2018-01-02T10:37:58.473Z,7.30
2018-01-02T10:41:04.429Z,7.30
2018-01-02T10:44:09.340Z,7.40
2018-01-02T10:47:14.767Z,7.20
2018-01-02T10:50:20.482Z,7.10
2018-01-02T10:53:26.381Z,7.20
2018-01-02T10:56:32.454Z,7.20
2018-01-02T10:59:38.133Z,7.20
2018-01-02T11:02:43.562Z,7.20
2018-01-02T11:05:49.214Z,7.50
2018-01-02T11:08:54.269Z,7.70
2018-01-02T11:12:06.218Z,7.50
2018-01-02T11:15:11.405Z,7.50
2018-01-02T11:18:16.905Z,7.30
2018-01-02T11:21:23.459Z,7.20
2018-01-02T11:24:29.126Z,7.20
2018-01-02T11:27:34.017Z,7.40
2018-01-02T11:30:39.995Z,7.60
2018-01-02T11:33:44.846Z,7.70
2018-01-02T11:36:50.422Z,7.80
2018-01-02T11:39:55.753Z,7.90
2018-01-02T11:43:02.177Z,7.30
2018-01-02T11:46:07.419Z,7.30
2018-01-02T11:49:12.921Z,7.30
2018-01-02T11:52:18.265Z,7.30
2018-01-02T11:55:25.014Z,7.30
2018-01-02T11:58:30.141Z,7.30
2018-01-02T12:01:37.027Z,7.30
2018-01-02T12:04:42.202Z,7.30
2018-01-02T12:07:47.739Z,7.30
2018-01-02T12:10:54.309Z,7.40
2018-01-02T12:14:00.544Z,7.40
2018-01-02T12:17:08.076Z,7.50
2018-01-02T12:20:21.826Z,7.50
2018-01-02T12:23:27.830Z,7.80
2018-01-02T12:26:33.478Z,8.00
2018-01-02T12:29:40.135Z,8.00
2018-01-02T12:32:46.293Z,7.90
2018-01-02T12:35:51.907Z,7.90
2018-01-02T12:38:57.762Z,8.30
2018-01-02T12:42:04.141Z,8.20
2018-01-02T12:45:08.958Z,8.10
2018-01-02T12:48:15.266Z,8.10
2018-01-02T12:51:20.117Z,8.10
2018-01-02T12:54:26.010Z,7.80
2018-01-02T12:57:31.222Z,7.80
2018-01-02T13:00:37.338Z,8.00
2018-01-02T13:03:42.310Z,8.00
2018-01-02T13:06:47.533Z,7.90
2018-01-02T13:09:52.314Z,7.80
2018-01-02T13:12:57.897Z,7.90
2018-01-02T13:16:03.877Z,7.60
2018-01-02T13:19:08.990Z,7.50
2018-01-02T13:22:14.739Z,7.50
2018-01-02T13:25:21.157Z,7.60
2018-01-02T13:28:27.478Z,7.60
2018-01-02T13:31:34.089Z,7.60
2018-01-02T13:34:40.329Z,7.60
2018-01-02T13:37:46.787Z,7.60
2018-01-02T13:40:54.327Z,7.60
2018-01-02T13:43:59.279Z,7.60
2018-01-02T13:47:06.113Z,7.70
2018-01-02T13:50:11.066Z,7.70
2018-01-02T13:53:16.755Z,7.60
2018-01-02T13:56:21.577Z,7.60
2018-01-02T13:59:27.676Z,7.60
2018-01-02T14:02:33.649Z,7.60
2018-01-02T14:05:39.226Z,7.70
2018-01-02T14:08:44.446Z,7.70
2018-01-02T14:11:49.703Z,7.80
2018-01-02T14:14:54.982Z,7.90
2018-01-02T14:18:00.847Z,7.90
2018-01-02T14:21:07.269Z,7.90
2018-01-02T14:24:12.138Z,7.90
2018-01-02T14:27:17.743Z,7.90
2018-01-02T14:30:22.553Z,7.80
2018-01-02T14:33:27.933Z,7.70
2018-01-02T14:36:32.897Z,7.70
2018-01-02T14:39:39.409Z,7.70
2018-01-02T14:42:45.778Z,7.50
2018-01-02T14:45:51.367Z,7.50
2018-01-02T14:48:57.212Z,7.40
2018-01-02T14:52:02.061Z,7.40
2018-01-02T14:55:07.778Z,7.30
2018-01-02T14:58:13.485Z,7.30
2018-01-02T15:01:18.223Z,7.30
2018-01-02T15:04:23.326Z,7.10
2018-01-02T15:07:28.406Z,7.00
2018-01-02T15:10:34.143Z,6.90
2018-01-02T15:13:39.687Z,6.90
2018-01-02T15:16:44.763Z,6.90
2018-01-02T15:19:49.747Z,6.80
2018-01-02T15:22:55.578Z,6.80
2018-01-02T15:26:00.857Z,6.60
2018-01-02T15:29:05.937Z,6.50
2018-01-02T15:32:11.698Z,6.50
2018-01-02T15:35:17.521Z,6.50
2018-01-02T15:38:23.453Z,6.30
2018-01-02T15:41:29.585Z,6.30
2018-01-02T15:44:35.125Z,6.30
2018-01-02T15:47:40.339Z,6.20
2018-01-02T15:50:45.957Z,6.10
2018-01-02T15:53:51.466Z,6.00
2018-01-02T15:56:57.218Z,5.90
2018-01-02T16:00:02.446Z,6.00
2018-01-02T16:03:07.724Z,6.00
2018-01-02T16:06:13.757Z,6.00
2018-01-02T16:09:19.869Z,6.00
2018-01-02T16:12:25.533Z,6.00
2018-01-02T16:15:31.289Z,6.00
2018-01-02T16:18:37.129Z,6.10
2018-01-02T16:21:42.765Z,6.20
2018-01-02T16:24:48.554Z,6.20
2018-01-02T16:27:54.001Z,6.30
2018-01-02T16:30:58.918Z,6.30
2018-01-02T16:34:05.368Z,6.40
2018-01-02T16:37:11.110Z,6.40
2018-01-02T16:40:16.421Z,6.40
2018-01-02T16:43:21.346Z,6.40
2018-01-02T16:46:26.675Z,6.40
2018-01-02T16:49:33.397Z,6.60
2018-01-02T16:52:39.192Z,6.60
2018-01-02T16:55:44.104Z,6.60
2018-01-02T16:58:49.501Z,6.60
2018-01-02T17:01:55.254Z,6.60
2018-01-02T17:05:00.890Z,6.70
2018-01-02T17:08:06.357Z,6.60
2018-01-02T17:11:12.505Z,6.50
2018-01-02T17:14:18.135Z,6.50
2018-01-02T17:17:24.354Z,6.40
2018-01-02T17:20:29.717Z,6.40
2018-01-02T17:23:35.275Z,6.50
2018-01-02T17:26:40.975Z,6.40
2018-01-02T17:29:46.638Z,6.40
2018-01-02T17:32:51.801Z,6.40
2018-01-02T17:35:56.963Z,6.50
2018-01-02T17:39:02.105Z,6.50
2018-01-02T17:42:07.865Z,6.60
2018-01-02T17:45:13.513Z,6.60
2018-01-02T17:48:19.290Z,6.60
2018-01-02T17:51:24.869Z,6.60
2018-01-02T17:54:29.885Z,6.60
2018-01-02T17:57:34.689Z,6.70
2018-01-02T18:00:41.212Z,6.60
2018-01-02T18:03:46.308Z,6.60
2018-01-02T18:06:51.518Z,6.60
2018-01-02T18:09:56.714Z,6.50
2018-01-02T18:13:01.958Z,6.50
2018-01-02T18:16:08.015Z,6.40
2018-01-02T18:19:12.922Z,6.40
2018-01-02T18:22:18.469Z,6.40
2018-01-02T18:25:24.858Z,6.50
2018-01-02T18:28:30.153Z,6.50
2018-01-02T18:31:35.068Z,6.50
2018-01-02T18:34:40.506Z,6.50
2018-01-02T18:37:45.949Z,6.60
2018-01-02T18:40:51.078Z,6.50
2018-01-02T18:43:55.906Z,6.50
2018-01-02T18:47:01.518Z,6.60
2018-01-02T18:50:07.498Z,6.60
2018-01-02T18:53:12.558Z,6.70
2018-01-02T18:56:18.034Z,6.70
2018-01-02T18:59:24.047Z,6.60
2018-01-02T19:02:29.320Z,6.60
2018-01-02T19:05:35.376Z,6.60
2018-01-02T19:08:41.158Z,6.60
2018-01-02T19:11:47.702Z,6.60
2018-01-02T19:14:53.382Z,6.60
2018-01-02T19:17:58.354Z,6.60
2018-01-02T19:21:03.847Z,6.60
2018-01-02T19:24:09.158Z,6.60
2018-01-02T19:27:14.692Z,6.70
2018-01-02T19:30:20.158Z,6.70
2018-01-02T19:33:25.847Z,6.80
2018-01-02T19:36:30.890Z,6.70
2018-01-02T19:39:36.303Z,6.80
2018-01-02T19:42:41.462Z,6.80
2018-01-02T19:45:47.666Z,6.70
2018-01-02T19:48:53.266Z,6.70
2018-01-02T19:51:59.670Z,6.70
2018-01-02T19:55:05.359Z,6.70
2018-01-02T19:58:11.086Z,6.70
2018-01-02T20:01:16.195Z,6.70
2018-01-02T20:04:21.698Z,6.70
2018-01-02T20:07:27.298Z,6.70
2018-01-02T20:10:32.686Z,6.70
2018-01-02T20:13:38.121Z,6.80
2018-01-02T20:16:43.860Z,6.70
2018-01-02T20:19:48.942Z,6.70
2018-01-02T20:22:54.408Z,6.60
2018-01-02T20:25:59.718Z,6.70
2018-01-02T20:29:06.010Z,6.70
2018-01-02T20:32:11.447Z,6.70
2018-01-02T20:35:16.302Z,6.70
2018-01-02T20:38:21.282Z,6.60
2018-01-02T20:41:27.026Z,6.60
2018-01-02T20:44:33.604Z,6.60
2018-01-02T20:47:39.762Z,6.60
2018-01-02T20:50:45.198Z,6.60
2018-01-02T20:53:50.147Z,6.50
2018-01-02T20:56:56.722Z,6.60
2018-01-02T21:00:02.326Z,6.60
2018-01-02T21:03:07.334Z,6.50
2018-01-02T21:06:12.936Z,6.50
2018-01-02T21:09:18.346Z,6.50
2018-01-02T21:12:23.714Z,6.50
2018-01-02T21:15:29.889Z,6.50
2018-01-02T21:18:35.380Z,6.50
2018-01-02T21:21:40.713Z,6.60
2018-01-02T21:24:45.515Z,6.60
2018-01-02T21:27:51.767Z,6.60
2018-01-02T21:30:57.969Z,6.50
2018-01-02T21:34:02.989Z,6.50
2018-01-02T21:37:08.801Z,6.60
2018-01-02T21:40:14.017Z,6.50
2018-01-02T21:43:20.335Z,6.50
2018-01-02T21:46:25.667Z,6.50
2018-01-02T21:49:30.295Z,6.50
2018-01-02T21:52:35.234Z,6.50
2018-01-02T21:55:40.895Z,6.50
2018-01-02T21:58:47.078Z,6.50
2018-01-02T22:01:53.186Z,6.40
2018-01-02T22:04:59.038Z,6.50
2018-01-02T22:08:04.422Z,6.50
2018-01-02T22:11:10.246Z,6.40
2018-01-02T22:14:15.926Z,6.40
2018-01-02T22:17:21.083Z,6.40
2018-01-02T22:20:26.496Z,6.50
2018-01-02T22:23:31.788Z,6.40
2018-01-02T22:26:37.567Z,6.40
2018-01-02T22:29:42.711Z,6.40
2018-01-02T22:32:47.807Z,6.40
2018-01-02T22:35:53.346Z,6.30
2018-01-02T22:38:59.625Z,6.30
2018-01-02T22:42:05.143Z,6.30
2018-01-02T22:45:10.231Z,6.30
2018-01-02T22:48:15.670Z,6.30
2018-01-02T22:51:21.171Z,6.40
2018-01-02T22:54:26.365Z,6.40
2018-01-02T22:57:31.295Z,6.30
2018-01-02T23:00:38.739Z,6.30
2018-01-02T23:03:44.522Z,6.20
2018-01-02T23:06:50.222Z,6.20
2018-01-02T23:09:56.286Z,6.20
2018-01-02T23:13:01.867Z,6.20
2018-01-02T23:16:08.154Z,6.10
2018-01-02T23:19:13.270Z,6.10
2018-01-02T23:22:19.476Z,6.30
2018-01-02T23:25:25.050Z,6.30
2018-01-02T23:28:31.271Z,6.30
2018-01-02T23:31:36.606Z,6.30
2018-01-02T23:34:42.346Z,6.30
2018-01-02T23:37:47.490Z,6.30
2018-01-02T23:40:53.027Z,6.30
2018-01-02T23:43:58.530Z,6.30
2018-01-02T23:47:04.107Z,6.40
2018-01-02T23:50:09.188Z,6.30
2018-01-02T23:53:15.218Z,6.40
2018-01-02T23:56:20.565Z,6.40
2018-01-02T23:59:26.746Z,6.40
